Red Devil, Alaska
Current Conditions -  °F | °C
As of 3:56 PM on Wednesday 22 Oct 2014 (Local Time) from PASL Reporting Station
Overcast Overcast  
Wind Chill: 21°   Ceiling: 2300
Heat Index: 28°   Visibility: 10mi
Dew Point: 16°   Wind: 7mph
Humidity: 59%   Direction: 310°NW
Pressure: 29.74"   Gusts: NA
Location:  61.76°N, 157.35°W
Report Text: PASL 222356Z AUTO 31006KT 10SM OVC023 M02/M09 A2974 RMK AO1 11010 21060 400101060 52010
Loading
Personal Weather Stations






























Interactive Weather Map
Tropical Storm Tracking
New forecast layout! Learn more

10-Day Weather Forecast

Advertisements
Track Severe Weather on mobile